createdAt,value
2018-11-12T00:12:12.394Z,300.1
2018-11-12T00:17:20.364Z,300.4
2018-11-12T00:22:28.490Z,300.3
2018-11-12T00:32:44.507Z,300.2
2018-11-12T00:37:52.546Z,300.3
2018-11-12T00:43:00.591Z,300.4
2018-11-12T00:48:08.683Z,300.2
2018-11-12T00:53:16.727Z,300.2
2018-11-12T00:58:24.772Z,300.2
2018-11-12T01:03:32.953Z,300.3
2018-11-12T01:08:41.061Z,300.2
2018-11-12T01:13:49.167Z,300.3
2018-11-12T01:18:57.369Z,300.2
2018-11-12T01:24:05.372Z,300.1
2018-11-12T01:34:21.726Z,300.2
2018-11-12T01:39:29.836Z,300.2
2018-11-12T01:49:46.175Z,300.2
2018-11-12T01:54:54.324Z,300.1
2018-11-12T02:00:02.485Z,300.2
2018-11-12T02:05:10.642Z,300.1
2018-11-12T02:10:18.713Z,300.1
2018-11-12T02:15:26.979Z,300.2
2018-11-12T02:20:35.257Z,300.1
2018-11-12T02:25:43.375Z,300.1
2018-11-12T02:35:59.737Z,300.2
2018-11-12T02:41:07.939Z,300.2
2018-11-12T02:46:16.112Z,300.1
2018-11-12T02:51:24.295Z,300.2
2018-11-12T02:56:32.455Z,300.1
2018-11-12T03:01:40.526Z,300.1
2018-11-12T03:06:48.757Z,300.3
2018-11-12T03:11:56.944Z,300.1
2018-11-12T03:17:05.096Z,300.2
2018-11-12T03:22:13.233Z,300.2
2018-11-12T03:37:37.546Z,300.2
2018-11-12T03:42:45.685Z,300.2
2018-11-12T03:47:53.778Z,300.1
2018-11-12T03:53:01.932Z,300.3
2018-11-12T03:58:09.975Z,300.2
2018-11-12T04:03:18.112Z,300.1
2018-11-12T04:08:26.096Z,300.2
2018-11-12T04:13:34.261Z,300.3
2018-11-12T04:18:42.372Z,300.2
2018-11-12T04:23:50.316Z,300.1
2018-11-12T04:28:58.487Z,300.2
2018-11-12T04:34:06.489Z,300.3
2018-11-12T04:39:14.661Z,300.4
2018-11-12T04:44:32.060Z,300.2
2018-11-12T04:49:30.754Z,300.3
2018-11-12T04:54:38.811Z,300.2
2018-11-12T04:59:46.891Z,300.3
2018-11-12T05:04:54.963Z,300.2
2018-11-12T05:20:19.202Z,300.4
2018-11-12T05:25:27.243Z,300.4
2018-11-12T05:30:35.375Z,300.4
2018-11-12T05:35:43.508Z,300.3
2018-11-12T05:40:51.562Z,300.4
2018-11-12T05:45:59.639Z,300.3
2018-11-12T05:51:07.672Z,300.2
2018-11-12T05:56:15.831Z,300.4
2018-11-12T06:01:23.920Z,300.4
2018-11-12T06:06:32.062Z,300.2
2018-11-12T06:11:40.140Z,300.2
2018-11-12T06:16:48.253Z,300.4
2018-11-12T06:21:56.374Z,300.3
2018-11-12T06:27:04.481Z,300.4
2018-11-12T06:32:13.111Z,300.3
2018-11-12T06:37:20.749Z,300.2
2018-11-12T06:42:28.875Z,300.3
2018-11-12T06:47:37.036Z,300.3
2018-11-12T06:57:53.601Z,300.2
2018-11-12T07:03:01.521Z,300.4
2018-11-12T07:08:09.603Z,300.4
2018-11-12T07:13:17.887Z,300.2
2018-11-12T07:18:26.042Z,300.6
2018-11-12T07:23:34.183Z,300.6
2018-11-12T07:33:50.359Z,300.5
2018-11-12T07:44:06.522Z,300.4
2018-11-12T07:49:14.727Z,300.4
2018-11-12T07:54:22.836Z,300.3
2018-11-12T07:59:30.953Z,300.8
2018-11-12T08:04:39.064Z,300.6
2018-11-12T08:09:47.166Z,300.3
2018-11-12T08:14:55.194Z,300.7
2018-11-12T08:20:03.390Z,300.5
2018-11-12T08:25:11.453Z,300.4
2018-11-12T08:30:19.616Z,300.5
2018-11-12T08:50:51.817Z,300.6
2018-11-12T08:55:59.953Z,300.4
2018-11-12T09:01:08.011Z,300.8
2018-11-12T09:06:15.985Z,300.3
2018-11-12T09:11:24.124Z,300.4
2018-11-12T09:16:32.219Z,300.5
2018-11-12T09:21:40.158Z,300.6
2018-11-12T09:26:48.262Z,300.4
2018-11-12T09:31:56.312Z,300.6
2018-11-12T09:37:04.339Z,300.3
2018-11-12T09:42:12.370Z,300.5
2018-11-12T09:47:20.352Z,300.4
2018-11-12T09:57:36.396Z,300.3
2018-11-12T10:02:44.404Z,300.4
2018-11-12T10:07:52.309Z,300.4
2018-11-12T10:13:00.388Z,300.4
2018-11-12T10:23:16.257Z,300.4
2018-11-12T10:28:24.210Z,300.5
2018-11-12T10:33:32.172Z,300.8
2018-11-12T10:38:40.226Z,300.5
2018-11-12T10:43:48.129Z,300.6
2018-11-12T10:48:55.986Z,300.5
2018-11-12T10:54:04.010Z,300.5
2018-11-12T10:59:11.908Z,300.4
2018-11-12T11:04:19.812Z,300.4
2018-11-12T11:09:27.728Z,300.7
2018-11-12T11:14:35.556Z,300.5
2018-11-12T11:19:43.508Z,300.5
2018-11-12T11:24:51.452Z,300.7
2018-11-12T11:29:59.282Z,300.5
2018-11-12T11:35:07.162Z,300.5
2018-11-12T11:40:15.020Z,300.4
2018-11-12T11:45:22.868Z,300.5
2018-11-12T11:50:30.649Z,300.4
2018-11-12T11:55:38.717Z,300.6
2018-11-12T12:05:54.553Z,300.4
2018-11-12T12:11:02.095Z,300.6
2018-11-12T12:16:09.875Z,300.6
2018-11-12T12:21:17.693Z,300.4
2018-11-12T12:26:25.501Z,300.5
2018-11-12T12:31:33.320Z,300.5
2018-11-12T12:36:41.000Z,300.5
2018-11-12T12:41:48.869Z,300.9
2018-11-12T12:52:04.341Z,300.6
2018-11-12T12:57:12.174Z,300.6
2018-11-12T13:02:20.020Z,300.6
2018-11-12T13:07:27.774Z,300.6
2018-11-12T13:12:35.648Z,301
2018-11-12T13:22:51.117Z,300.7
2018-11-12T13:27:58.898Z,300.8
2018-11-12T13:33:06.621Z,300.8
2018-11-12T13:48:30.049Z,300.6
2018-11-12T13:53:37.892Z,300.8
2018-11-12T14:03:53.643Z,301.2
2018-11-12T14:09:01.479Z,301.1
2018-11-12T14:14:09.343Z,300.9
2018-11-12T14:19:17.195Z,300.9
2018-11-12T14:24:25.072Z,300.8
2018-11-12T14:29:32.951Z,300.8
2018-11-12T14:34:40.762Z,300.8
2018-11-12T14:39:48.673Z,300.7
2018-11-12T14:44:56.506Z,300.8
2018-11-12T14:55:12.336Z,300.8
2018-11-12T15:05:28.165Z,301
2018-11-12T15:10:36.340Z,300.9
2018-11-12T15:15:43.943Z,301
2018-11-12T15:20:51.922Z,301.4
2018-11-12T15:31:07.688Z,301
2018-11-12T15:36:15.523Z,301.1
2018-11-12T15:41:23.494Z,301.2
2018-11-12T15:46:31.334Z,302
2018-11-12T15:51:39.327Z,301.2
2018-11-12T15:56:47.216Z,301.6
2018-11-12T16:01:55.067Z,301.5
2018-11-12T16:07:02.983Z,301.3
2018-11-12T16:12:10.917Z,301.4
2018-11-12T16:17:18.925Z,301.4
2018-11-12T16:22:26.831Z,301.4
2018-11-12T16:27:34.784Z,301.2
2018-11-12T16:32:42.729Z,301.4
2018-11-12T16:37:50.637Z,301.5
2018-11-12T16:42:58.552Z,301.7
2018-11-12T16:48:06.388Z,302
2018-11-12T16:53:14.384Z,301.9
2018-11-12T16:58:22.251Z,301.7
2018-11-12T17:03:30.169Z,301.9
2018-11-12T17:13:46.118Z,301.5
2018-11-12T17:18:54.035Z,301.8
2018-11-12T17:24:02.000Z,301.5
2018-11-12T17:29:09.930Z,301.4
2018-11-12T17:34:17.805Z,301.3
2018-11-12T17:39:25.876Z,301.4
2018-11-12T17:44:33.845Z,301.3
2018-11-12T17:54:49.951Z,301.3
2018-11-12T17:59:57.848Z,302.3
2018-11-12T18:05:05.831Z,301.5
2018-11-12T18:10:13.854Z,301.5
2018-11-12T18:15:24.078Z,301.3
2018-11-12T18:20:29.831Z,301.4
2018-11-12T18:25:37.827Z,301.4
2018-11-12T18:30:45.778Z,301.5
2018-11-12T18:35:53.858Z,301.6
2018-11-12T18:46:09.824Z,301.6
2018-11-12T18:56:25.770Z,301.9
2018-11-12T19:01:33.755Z,301.7
2018-11-12T19:06:41.731Z,302
2018-11-12T19:11:49.739Z,302
2018-11-12T19:16:57.712Z,302
2018-11-12T19:22:05.741Z,301.8
2018-11-12T19:27:13.798Z,301.9
2018-11-12T19:32:21.716Z,301.6
2018-11-12T19:37:29.836Z,301.5
2018-11-12T19:42:37.798Z,301.7
2018-11-12T19:47:45.924Z,301.9
2018-11-12T19:52:53.948Z,301.7
2018-11-12T19:58:02.017Z,301.6
2018-11-12T20:08:18.093Z,301.6
2018-11-12T20:13:26.175Z,301.6
2018-11-12T20:18:34.189Z,301.7
2018-11-12T20:23:42.319Z,301.7
2018-11-12T20:28:50.256Z,301.5
2018-11-12T20:39:06.292Z,301.8
2018-11-12T20:49:22.346Z,301.7
2018-11-12T20:54:30.334Z,301.6
2018-11-12T20:59:38.364Z,301.7
2018-11-12T21:04:46.389Z,301.8
2018-11-12T21:09:54.410Z,302
2018-11-12T21:15:02.461Z,301.8
2018-11-12T21:20:10.491Z,301.7
2018-11-12T21:25:18.525Z,301.9
2018-11-12T21:30:26.486Z,301.5
2018-11-12T21:35:34.636Z,301.6
2018-11-12T21:40:42.643Z,301.5
2018-11-12T21:50:58.658Z,301.6
2018-11-12T21:56:06.676Z,301.6
2018-11-12T22:01:14.780Z,301.6
2018-11-12T22:06:22.807Z,301.6
2018-11-12T22:11:30.847Z,301.6
2018-11-12T22:21:46.940Z,301.4
2018-11-12T22:26:55.051Z,301.6
2018-11-12T22:32:03.027Z,301.8
2018-11-12T22:37:11.063Z,301.8
2018-11-12T22:42:19.089Z,301.9
2018-11-12T22:47:27.134Z,301.9
2018-11-12T22:52:35.107Z,301.9
2018-11-12T22:57:43.152Z,301.9
2018-11-12T23:02:51.195Z,301.8
2018-11-12T23:07:59.342Z,301.8
2018-11-12T23:13:07.345Z,302.3
2018-11-12T23:18:15.356Z,302.5
2018-11-12T23:23:23.452Z,302.3
2018-11-12T23:28:31.589Z,302.3
2018-11-12T23:33:39.578Z,302.2
2018-11-12T23:38:47.644Z,302.1
2018-11-12T23:43:55.701Z,302.3
2018-11-12T23:49:03.720Z,302.9
2018-11-12T23:54:11.776Z,301.9
